createdAt,value
2018-08-12T00:01:51.242Z,47.30
2018-08-12T00:04:19.606Z,47.40
2018-08-12T00:06:48.008Z,47.60
2018-08-12T00:09:16.344Z,47.80
2018-08-12T00:11:45.028Z,48.00
2018-08-12T00:14:13.437Z,48.20
2018-08-12T00:16:41.788Z,48.30
2018-08-12T00:19:10.188Z,48.60
2018-08-12T00:21:38.648Z,48.70
2018-08-12T00:24:07.174Z,49.70
2018-08-12T00:26:35.675Z,49.10
2018-08-12T00:29:04.065Z,49.00
2018-08-12T00:31:32.412Z,48.90
2018-08-12T00:34:00.793Z,48.90
2018-08-12T00:36:29.283Z,49.00
2018-08-12T00:38:58.478Z,49.00
2018-08-12T00:41:26.830Z,49.00
2018-08-12T00:43:55.230Z,49.00
2018-08-12T00:46:23.594Z,49.20
2018-08-12T00:48:52.031Z,49.40
2018-08-12T00:51:20.997Z,50.00
2018-08-12T00:53:49.375Z,49.90
2018-08-12T00:56:17.751Z,49.80
2018-08-12T00:58:46.107Z,49.60
2018-08-12T01:01:14.490Z,49.70
2018-08-12T01:03:42.951Z,50.00
2018-08-12T01:06:11.325Z,50.00
2018-08-12T01:08:39.729Z,49.90
2018-08-12T01:11:08.076Z,50.10
2018-08-12T01:13:37.319Z,50.10
2018-08-12T01:16:06.066Z,50.30
2018-08-12T01:18:34.486Z,50.40
2018-08-12T01:21:02.871Z,50.50
2018-08-12T01:23:31.222Z,50.60
2018-08-12T01:25:59.634Z,50.60
2018-08-12T01:28:28.023Z,50.70
2018-08-12T01:30:56.384Z,50.70
2018-08-12T01:33:24.815Z,50.80
2018-08-12T01:36:00.037Z,50.90
2018-08-12T01:38:28.457Z,51.00
2018-08-12T01:40:56.810Z,51.10
2018-08-12T01:43:25.164Z,51.10
2018-08-12T01:45:53.551Z,51.20
2018-08-12T01:48:21.982Z,51.20
2018-08-12T01:50:50.392Z,51.40
2018-08-12T01:53:19.410Z,51.60
2018-08-12T01:55:47.774Z,51.70
2018-08-12T01:58:16.198Z,51.60
2018-08-12T02:00:44.578Z,51.60
2018-08-12T02:03:12.954Z,51.70
2018-08-12T02:05:41.398Z,51.60
2018-08-12T02:08:09.739Z,51.70
2018-08-12T02:10:38.069Z,51.80
2018-08-12T02:13:06.509Z,51.70
2018-08-12T02:15:34.883Z,51.90
2018-08-12T02:18:03.287Z,52.00
2018-08-12T02:20:31.634Z,52.20
2018-08-12T02:23:00.027Z,52.10
2018-08-12T02:25:28.423Z,52.20
2018-08-12T02:27:56.940Z,52.20
2018-08-12T02:30:25.309Z,52.40
2018-08-12T02:32:53.668Z,52.50
2018-08-12T02:35:22.059Z,52.60
2018-08-12T02:37:50.435Z,52.70
2018-08-12T02:40:18.904Z,52.50
2018-08-12T02:42:47.261Z,52.80
2018-08-12T02:45:16.766Z,53.00
2018-08-12T02:47:45.166Z,53.00
2018-08-12T02:50:13.529Z,52.90
2018-08-12T02:52:42.564Z,53.00
2018-08-12T02:55:11.370Z,53.20
2018-08-12T02:57:39.863Z,53.30
2018-08-12T03:00:10.049Z,53.50
2018-08-12T03:02:38.386Z,53.70
2018-08-12T03:05:06.810Z,53.70
2018-08-12T03:07:35.494Z,53.80
2018-08-12T03:10:04.604Z,53.80
2018-08-12T03:12:32.956Z,53.80
2018-08-12T03:15:02.203Z,53.80
2018-08-12T03:17:30.705Z,53.80
2018-08-12T03:19:59.062Z,53.80
2018-08-12T03:22:27.440Z,53.80
2018-08-12T03:24:55.740Z,53.80
2018-08-12T03:27:24.088Z,53.70
2018-08-12T03:29:52.511Z,53.70
2018-08-12T03:32:20.833Z,53.70
2018-08-12T03:34:49.403Z,53.70
2018-08-12T03:37:17.766Z,53.60
2018-08-12T03:39:46.139Z,53.60
2018-08-12T03:42:14.512Z,53.60
2018-08-12T03:44:42.874Z,53.60
2018-08-12T03:47:11.218Z,53.60
2018-08-12T03:49:39.566Z,53.60
2018-08-12T03:52:08.140Z,53.50
2018-08-12T03:54:36.576Z,53.50
2018-08-12T03:57:04.934Z,53.50
2018-08-12T03:59:33.293Z,53.50
2018-08-12T04:02:01.712Z,53.50
2018-08-12T04:04:30.071Z,53.40
2018-08-12T04:06:58.486Z,53.40
2018-08-12T04:09:26.864Z,53.40
2018-08-12T04:11:55.242Z,53.40
2018-08-12T04:14:23.566Z,53.40
2018-08-12T04:16:57.648Z,53.30
2018-08-12T04:19:26.060Z,53.30
2018-08-12T04:21:54.460Z,53.30
2018-08-12T04:24:22.850Z,53.30
2018-08-12T04:26:51.285Z,53.30
2018-08-12T04:29:19.613Z,53.70
2018-08-12T04:31:48.913Z,54.00
2018-08-12T04:34:17.256Z,54.00
2018-08-12T04:36:45.616Z,54.20
2018-08-12T04:39:14.504Z,54.20
2018-08-12T04:41:43.888Z,54.80
2018-08-12T04:44:12.492Z,54.20
2018-08-12T04:46:40.888Z,53.10
2018-08-12T04:49:10.138Z,53.60
2018-08-12T04:51:38.749Z,53.80
2018-08-12T04:54:07.415Z,53.80
2018-08-12T04:56:35.829Z,53.80
2018-08-12T04:59:04.486Z,54.10
2018-08-12T05:01:32.939Z,54.60
2018-08-12T05:04:01.318Z,54.90
2018-08-12T05:06:29.681Z,54.70
2018-08-12T05:08:58.049Z,54.80
2018-08-12T05:11:26.700Z,54.80
2018-08-12T05:13:55.121Z,54.80
2018-08-12T05:16:23.723Z,54.90
2018-08-12T05:18:52.757Z,55.10
2018-08-12T05:21:21.109Z,55.00
2018-08-12T05:23:49.475Z,54.80
2018-08-12T05:26:17.877Z,54.60
2018-08-12T05:28:46.364Z,54.70
2018-08-12T05:31:14.716Z,54.50
2018-08-12T05:33:43.137Z,54.40
2018-08-12T05:36:11.633Z,54.50
2018-08-12T05:38:39.942Z,54.60
2018-08-12T05:41:08.324Z,54.80
2018-08-12T05:43:36.708Z,54.90
2018-08-12T05:46:05.150Z,54.70
2018-08-12T05:48:33.512Z,54.50
2018-08-12T05:51:01.931Z,54.30
2018-08-12T05:53:30.827Z,54.60
2018-08-12T05:55:59.196Z,54.40
2018-08-12T05:58:27.573Z,54.10
2018-08-12T06:00:56.621Z,54.20
2018-08-12T06:03:24.983Z,53.80
2018-08-12T06:05:53.331Z,54.20
2018-08-12T06:08:21.689Z,54.20
2018-08-12T06:10:50.103Z,54.30
2018-08-12T06:13:18.695Z,54.00
2018-08-12T06:15:47.137Z,53.20
2018-08-12T06:18:15.485Z,53.20
2018-08-12T06:20:44.047Z,52.60
2018-08-12T06:23:12.969Z,52.80
2018-08-12T06:25:41.423Z,52.80
2018-08-12T06:28:09.803Z,52.40
2018-08-12T06:30:38.185Z,52.40
2018-08-12T06:33:06.677Z,51.70
2018-08-12T06:35:35.109Z,51.40
2018-08-12T06:38:03.499Z,51.70
2018-08-12T06:40:31.961Z,52.40
2018-08-12T06:43:00.380Z,52.00
2018-08-12T06:45:28.879Z,51.40
2018-08-12T06:47:57.276Z,51.10
2018-08-12T06:50:25.617Z,51.10
2018-08-12T06:52:53.976Z,50.90
2018-08-12T06:55:22.329Z,50.80
2018-08-12T06:57:50.679Z,50.90
2018-08-12T07:00:19.563Z,51.20
2018-08-12T07:02:48.235Z,50.90
2018-08-12T07:05:16.620Z,51.20
2018-08-12T07:07:44.999Z,50.50
2018-08-12T07:10:20.058Z,50.80
2018-08-12T07:12:48.409Z,49.90
2018-08-12T07:15:18.237Z,49.70
2018-08-12T07:17:47.221Z,49.30
2018-08-12T07:20:16.009Z,48.90
2018-08-12T07:22:44.963Z,48.10
2018-08-12T07:25:14.199Z,47.80
2018-08-12T07:27:43.117Z,47.40
2018-08-12T07:30:14.148Z,47.20
2018-08-12T07:32:42.574Z,46.50
2018-08-12T07:35:11.893Z,45.60
2018-08-12T07:37:41.611Z,45.30
2018-08-12T07:40:13.924Z,45.20
2018-08-12T07:42:43.010Z,44.60
2018-08-12T07:45:12.654Z,44.40
2018-08-12T07:47:43.020Z,43.70
2018-08-12T07:50:12.127Z,43.00
2018-08-12T07:52:41.644Z,41.80
2018-08-12T07:55:11.110Z,41.70
2018-08-12T07:57:39.703Z,41.30
2018-08-12T08:00:10.645Z,41.20
2018-08-12T08:02:39.067Z,40.50
2018-08-12T08:05:07.595Z,40.60
2018-08-12T08:07:36.625Z,40.60
2018-08-12T08:10:07.692Z,39.70
2018-08-12T08:12:36.533Z,39.80
2018-08-12T08:15:05.754Z,37.70
2018-08-12T08:17:34.137Z,37.20
2018-08-12T08:20:02.527Z,36.40
2018-08-12T08:22:31.486Z,36.10
2018-08-12T08:25:00.607Z,35.20
2018-08-12T08:27:29.051Z,35.20
2018-08-12T08:29:57.410Z,34.00
2018-08-12T08:32:25.757Z,33.70
2018-08-12T08:34:54.123Z,34.30
2018-08-12T08:37:22.508Z,33.90
2018-08-12T08:39:52.113Z,34.00
2018-08-12T08:42:20.769Z,31.90
2018-08-12T08:44:49.116Z,31.70
2018-08-12T08:47:17.549Z,31.30
2018-08-12T08:49:45.964Z,30.80
2018-08-12T08:52:14.353Z,31.50
2018-08-12T08:54:42.680Z,31.10
2018-08-12T08:57:11.084Z,29.90
2018-08-12T08:59:40.748Z,29.90
2018-08-12T09:02:09.159Z,29.10
2018-08-12T09:04:39.733Z,29.30
2018-08-12T09:07:08.137Z,29.20
2018-08-12T09:09:36.492Z,28.40
2018-08-12T09:12:04.916Z,27.50
2018-08-12T09:14:33.393Z,28.40
2018-08-12T09:17:01.983Z,28.50
2018-08-12T09:19:31.543Z,28.60
2018-08-12T09:22:00.007Z,28.80
2018-08-12T09:24:28.808Z,27.90
2018-08-12T09:26:57.192Z,27.30
2018-08-12T09:29:25.799Z,27.50
2018-08-12T09:31:54.175Z,27.20
2018-08-12T09:34:22.522Z,26.70
2018-08-12T09:36:50.933Z,26.90
2018-08-12T09:39:19.332Z,27.30
2018-08-12T09:41:48.311Z,26.50
2018-08-12T09:44:17.311Z,25.60
2018-08-12T09:46:45.648Z,25.80
2018-08-12T09:49:14.266Z,24.90
2018-08-12T09:51:44.123Z,25.40
2018-08-12T09:54:12.379Z,26.00
2018-08-12T09:56:40.968Z,25.00
2018-08-12T09:59:09.360Z,25.20
2018-08-12T10:01:37.798Z,25.40
2018-08-12T10:04:06.132Z,25.00
2018-08-12T10:06:34.528Z,25.10
2018-08-12T10:09:03.008Z,25.80
2018-08-12T10:11:31.362Z,25.40
2018-08-12T10:13:59.723Z,25.10
2018-08-12T10:16:28.164Z,25.30
2018-08-12T10:18:56.576Z,25.20
2018-08-12T10:21:24.978Z,23.70
2018-08-12T10:23:53.388Z,24.00
2018-08-12T10:26:21.762Z,23.20
2018-08-12T10:28:50.122Z,25.00
2018-08-12T10:31:18.463Z,23.60
2018-08-12T10:33:46.867Z,23.90
2018-08-12T10:36:15.212Z,24.60
2018-08-12T10:38:43.594Z,23.10
2018-08-12T10:41:11.939Z,23.00
2018-08-12T10:43:40.345Z,23.20
2018-08-12T10:46:08.743Z,22.40
2018-08-12T10:48:37.177Z,24.30
2018-08-12T10:51:06.617Z,23.10
2018-08-12T10:53:35.124Z,22.60
2018-08-12T10:56:03.542Z,22.20
2018-08-12T10:58:31.933Z,22.40
2018-08-12T11:01:01.473Z,22.20
2018-08-12T11:03:29.882Z,21.60
2018-08-12T11:05:58.285Z,22.40
2018-08-12T11:08:26.656Z,22.80
2018-08-12T11:10:55.126Z,21.80
2018-08-12T11:13:23.466Z,22.50
2018-08-12T11:15:51.895Z,22.70
2018-08-12T11:18:20.270Z,22.20
2018-08-12T11:20:48.602Z,22.10
2018-08-12T11:23:16.967Z,21.30
2018-08-12T11:25:45.471Z,20.90
2018-08-12T11:28:13.885Z,21.40
2018-08-12T11:30:42.218Z,21.50
2018-08-12T11:33:10.588Z,21.60
2018-08-12T11:35:38.976Z,21.50
2018-08-12T11:38:07.370Z,21.30
2018-08-12T11:40:35.711Z,21.50
2018-08-12T11:43:04.728Z,21.50
2018-08-12T11:45:33.096Z,21.30
2018-08-12T11:48:01.498Z,21.00
2018-08-12T11:50:29.970Z,21.40
2018-08-12T11:52:58.328Z,21.00
2018-08-12T11:55:26.727Z,20.40
2018-08-12T11:57:55.114Z,21.00
2018-08-12T12:00:24.363Z,20.70
2018-08-12T12:02:53.175Z,21.50
2018-08-12T12:05:21.572Z,20.70
2018-08-12T12:07:49.941Z,19.90
2018-08-12T12:10:19.991Z,20.60
2018-08-12T12:12:49.370Z,20.40
2018-08-12T12:15:17.927Z,20.40
2018-08-12T12:17:46.955Z,21.00
2018-08-12T12:20:16.123Z,21.00
2018-08-12T12:22:45.375Z,19.80
2018-08-12T12:25:15.109Z,19.50
2018-08-12T12:27:43.796Z,18.40
2018-08-12T12:30:17.658Z,18.80
2018-08-12T12:32:47.537Z,20.20
2018-08-12T12:35:16.577Z,19.10
2018-08-12T12:37:44.889Z,18.50
2018-08-12T12:40:14.967Z,17.90
2018-08-12T12:42:43.797Z,18.70
2018-08-12T12:45:13.143Z,19.70
2018-08-12T12:47:42.013Z,19.20
2018-08-12T12:50:12.683Z,17.90
2018-08-12T12:52:41.233Z,18.10
2018-08-12T12:55:09.653Z,19.20
2018-08-12T12:57:38.008Z,18.10
2018-08-12T13:00:08.613Z,18.90
2018-08-12T13:02:36.984Z,19.10
2018-08-12T13:05:07.475Z,18.90
2018-08-12T13:07:35.864Z,18.60
2018-08-12T13:10:04.967Z,18.20
2018-08-12T13:12:33.363Z,19.30
2018-08-12T13:15:01.994Z,18.00
2018-08-12T13:17:30.428Z,18.10
2018-08-12T13:19:58.798Z,18.00
2018-08-12T13:22:27.176Z,18.30
2018-08-12T13:24:55.527Z,18.10
2018-08-12T13:27:23.953Z,17.80
2018-08-12T13:29:52.319Z,17.70
2018-08-12T13:32:20.739Z,18.40
2018-08-12T13:34:49.151Z,17.40
2018-08-12T13:37:17.536Z,17.20
2018-08-12T13:39:46.039Z,17.90
2018-08-12T13:42:14.491Z,17.40
2018-08-12T13:44:42.924Z,16.90
2018-08-12T13:47:11.321Z,17.00
2018-08-12T13:49:39.719Z,17.40
2018-08-12T13:52:08.150Z,17.90
2018-08-12T13:54:36.483Z,16.90
2018-08-12T13:57:04.969Z,16.60
2018-08-12T13:59:33.352Z,17.20
2018-08-12T14:02:01.742Z,17.60
2018-08-12T14:04:30.135Z,17.70
2018-08-12T14:06:58.587Z,16.90
2018-08-12T14:09:26.885Z,17.10
2018-08-12T14:11:55.373Z,17.00
2018-08-12T14:14:23.758Z,16.60
2018-08-12T14:16:58.874Z,16.90
2018-08-12T14:19:27.341Z,16.60
2018-08-12T14:21:55.743Z,17.60
2018-08-12T14:24:24.147Z,16.30
2018-08-12T14:26:52.901Z,16.70
2018-08-12T14:29:21.274Z,16.90
2018-08-12T14:31:49.637Z,17.10
2018-08-12T14:34:18.184Z,17.90
2018-08-12T14:36:47.434Z,17.00
2018-08-12T14:39:16.005Z,17.50
2018-08-12T14:41:44.413Z,17.60
2018-08-12T14:44:12.759Z,17.60
2018-08-12T14:46:41.115Z,17.70
2018-08-12T14:49:09.539Z,17.80
2018-08-12T14:51:37.916Z,17.00
2018-08-12T14:54:06.329Z,16.70
2018-08-12T14:56:34.781Z,17.50
2018-08-12T14:59:03.458Z,17.80
2018-08-12T15:01:31.833Z,16.80
2018-08-12T15:04:00.183Z,17.30
2018-08-12T15:06:28.614Z,16.70
2018-08-12T15:08:57.058Z,16.40
2018-08-12T15:11:25.413Z,16.40
2018-08-12T15:13:53.833Z,15.90
2018-08-12T15:16:28.817Z,16.30
2018-08-12T15:18:57.966Z,17.70
2018-08-12T15:21:26.321Z,16.80
2018-08-12T15:23:54.724Z,17.10
2018-08-12T15:26:23.098Z,16.50
2018-08-12T15:28:51.427Z,16.00
2018-08-12T15:31:19.956Z,16.30
2018-08-12T15:33:48.324Z,16.70
2018-08-12T15:36:16.824Z,16.20
2018-08-12T15:38:45.635Z,16.50
2018-08-12T15:41:14.807Z,16.00
2018-08-12T15:43:43.355Z,15.90
2018-08-12T15:46:11.725Z,15.50
2018-08-12T15:48:40.090Z,15.40
2018-08-12T15:51:08.445Z,15.60
2018-08-12T15:53:37.082Z,14.90
2018-08-12T15:56:05.548Z,16.00
2018-08-12T15:58:33.876Z,15.50
2018-08-12T16:01:02.281Z,15.90
2018-08-12T16:03:31.026Z,15.90
2018-08-12T16:05:59.317Z,16.10
2018-08-12T16:08:27.740Z,15.90
2018-08-12T16:10:56.137Z,16.10
2018-08-12T16:13:24.567Z,15.80
2018-08-12T16:15:52.928Z,15.50
2018-08-12T16:18:21.476Z,15.50
2018-08-12T16:20:49.894Z,16.20
2018-08-12T16:23:18.263Z,15.10
2018-08-12T16:25:46.629Z,15.20
2018-08-12T16:28:14.991Z,15.90
2018-08-12T16:30:43.404Z,16.20
2018-08-12T16:33:11.825Z,15.90
2018-08-12T16:35:40.213Z,15.60
2018-08-12T16:38:09.366Z,15.10
2018-08-12T16:40:37.777Z,15.30
2018-08-12T16:43:06.326Z,15.20
2018-08-12T16:45:34.864Z,16.00
2018-08-12T16:48:03.376Z,16.70
2018-08-12T16:50:31.808Z,15.20
2018-08-12T16:53:00.156Z,15.60
2018-08-12T16:55:28.679Z,15.10
2018-08-12T16:57:57.268Z,15.50
2018-08-12T17:00:25.664Z,16.30
2018-08-12T17:02:54.008Z,16.70
2018-08-12T17:05:23.365Z,15.90
2018-08-12T17:07:52.125Z,16.40
2018-08-12T17:10:20.970Z,17.40
2018-08-12T17:12:49.360Z,18.20
2018-08-12T17:15:19.297Z,18.40
2018-08-12T17:17:48.248Z,18.60
2018-08-12T17:20:17.742Z,18.70
2018-08-12T17:22:46.540Z,18.90
2018-08-12T17:25:14.996Z,19.00
2018-08-12T17:27:43.364Z,19.00
2018-08-12T17:30:13.144Z,19.50
2018-08-12T17:32:41.655Z,19.30
2018-08-12T17:35:10.956Z,19.10
2018-08-12T17:37:39.850Z,20.10
2018-08-12T17:40:10.446Z,21.30
2018-08-12T17:42:38.968Z,21.60
2018-08-12T17:45:08.755Z,21.90
2018-08-12T17:47:37.437Z,21.60
2018-08-12T17:50:06.527Z,20.90
2018-08-12T17:52:34.918Z,20.80
2018-08-12T17:55:03.482Z,21.40
2018-08-12T17:57:31.898Z,21.90
2018-08-12T18:00:00.453Z,22.10
2018-08-12T18:02:28.830Z,22.60
2018-08-12T18:04:57.223Z,22.80
2018-08-12T18:07:25.643Z,22.90
2018-08-12T18:09:54.048Z,22.80
2018-08-12T18:12:22.434Z,23.10
2018-08-12T18:14:50.791Z,23.70
2018-08-12T18:17:19.344Z,23.90
2018-08-12T18:19:47.734Z,24.00
2018-08-12T18:22:16.329Z,24.40
2018-08-12T18:24:44.706Z,24.40
2018-08-12T18:27:13.071Z,24.30
2018-08-12T18:29:41.441Z,25.30
2018-08-12T18:32:09.804Z,25.40
2018-08-12T18:34:38.357Z,25.40
2018-08-12T18:37:06.723Z,25.40
2018-08-12T18:39:35.094Z,25.30
2018-08-12T18:42:03.484Z,25.50
2018-08-12T18:44:31.881Z,25.70
2018-08-12T18:47:00.282Z,26.00
2018-08-12T18:49:29.875Z,26.30
2018-08-12T18:51:58.258Z,26.60
2018-08-12T18:54:26.616Z,27.00
2018-08-12T18:56:54.973Z,27.30
2018-08-12T18:59:23.335Z,27.30
2018-08-12T19:01:51.739Z,27.50
2018-08-12T19:04:20.199Z,28.20
2018-08-12T19:06:48.584Z,27.90
2018-08-12T19:09:16.963Z,28.90
2018-08-12T19:11:45.367Z,28.70
2018-08-12T19:14:13.871Z,28.70
2018-08-12T19:16:42.752Z,29.20
2018-08-12T19:19:18.237Z,28.70
2018-08-12T19:21:46.674Z,28.80
2018-08-12T19:24:15.114Z,29.30
2018-08-12T19:26:43.511Z,29.70
2018-08-12T19:29:11.875Z,29.60
2018-08-12T19:31:40.483Z,29.80
2018-08-12T19:34:08.982Z,29.80
2018-08-12T19:36:37.399Z,30.50
2018-08-12T19:39:08.503Z,30.70
2018-08-12T19:41:36.935Z,30.50
2018-08-12T19:44:05.381Z,30.80
2018-08-12T19:46:34.433Z,31.00
2018-08-12T19:49:02.813Z,31.40
2018-08-12T19:51:31.217Z,32.10
2018-08-12T19:54:00.239Z,31.80
2018-08-12T19:56:28.751Z,31.10
2018-08-12T19:58:57.786Z,31.20
2018-08-12T20:01:26.189Z,32.10
2018-08-12T20:03:54.842Z,32.10
2018-08-12T20:06:23.256Z,32.10
2018-08-12T20:08:51.627Z,32.80
2018-08-12T20:11:20.017Z,33.50
2018-08-12T20:13:48.379Z,34.00
2018-08-12T20:16:16.797Z,34.10
2018-08-12T20:18:45.152Z,34.10
2018-08-12T20:21:13.614Z,34.50
2018-08-12T20:23:42.013Z,34.80
2018-08-12T20:26:10.506Z,34.90
2018-08-12T20:28:38.908Z,35.30
2018-08-12T20:31:07.461Z,35.60
2018-08-12T20:33:35.994Z,36.20
2018-08-12T20:36:04.435Z,36.50
2018-08-12T20:38:32.843Z,36.40
2018-08-12T20:41:01.351Z,36.40
2018-08-12T20:43:29.689Z,36.20
2018-08-12T20:45:58.039Z,36.10
2018-08-12T20:48:26.458Z,36.10
2018-08-12T20:50:54.980Z,36.10
2018-08-12T20:53:23.776Z,36.50
2018-08-12T20:55:52.115Z,36.70
2018-08-12T20:58:20.568Z,36.70
2018-08-12T21:00:49.009Z,36.90
2018-08-12T21:03:18.828Z,37.00
2018-08-12T21:05:48.121Z,37.40
2018-08-12T21:08:17.082Z,37.50
2018-08-12T21:10:45.433Z,37.80
2018-08-12T21:13:13.796Z,37.80
2018-08-12T21:15:42.256Z,37.80
2018-08-12T21:18:10.652Z,37.50
2018-08-12T21:20:39.065Z,37.30
2018-08-12T21:23:07.445Z,37.40
2018-08-12T21:25:35.927Z,37.60
2018-08-12T21:28:04.260Z,37.90
2018-08-12T21:30:32.643Z,38.10
2018-08-12T21:33:01.027Z,38.50
2018-08-12T21:35:29.340Z,39.00
2018-08-12T21:37:58.326Z,39.10
2018-08-12T21:40:26.666Z,39.30
2018-08-12T21:42:54.996Z,40.30
2018-08-12T21:45:23.444Z,40.00
2018-08-12T21:47:51.844Z,39.90
2018-08-12T21:50:20.883Z,40.00
2018-08-12T21:52:49.321Z,40.00
2018-08-12T21:55:17.726Z,39.90
2018-08-12T21:57:46.111Z,39.90
2018-08-12T22:00:15.328Z,40.20
2018-08-12T22:02:44.770Z,40.40
2018-08-12T22:05:13.312Z,40.60
2018-08-12T22:07:41.692Z,40.60
2018-08-12T22:10:10.036Z,41.60
2018-08-12T22:12:38.394Z,41.10
2018-08-12T22:15:07.438Z,41.40
2018-08-12T22:17:36.326Z,41.70
2018-08-12T22:20:05.623Z,42.20
2018-08-12T22:22:34.025Z,42.20
2018-08-12T22:25:02.368Z,42.50
2018-08-12T22:27:31.440Z,42.40
2018-08-12T22:29:59.849Z,42.20
2018-08-12T22:32:28.273Z,42.60
2018-08-12T22:34:56.632Z,42.80
2018-08-12T22:37:25.798Z,43.10
2018-08-12T22:39:54.268Z,43.30
2018-08-12T22:42:22.657Z,43.50
2018-08-12T22:44:50.993Z,43.40
2018-08-12T22:47:19.380Z,43.60
2018-08-12T22:49:47.752Z,43.70
2018-08-12T22:52:17.935Z,43.60
2018-08-12T22:54:46.533Z,43.40
2018-08-12T22:57:14.902Z,43.50
2018-08-12T22:59:43.367Z,43.50
2018-08-12T23:02:12.371Z,43.70
2018-08-12T23:04:40.804Z,43.90
2018-08-12T23:07:09.262Z,44.10
2018-08-12T23:09:37.607Z,44.30
2018-08-12T23:12:06.842Z,44.60
2018-08-12T23:14:35.423Z,44.80
2018-08-12T23:17:03.835Z,44.90
2018-08-12T23:19:32.167Z,45.00
2018-08-12T23:22:00.549Z,44.90
2018-08-12T23:24:29.320Z,45.00
2018-08-12T23:26:57.864Z,45.20
2018-08-12T23:29:26.616Z,45.20
2018-08-12T23:31:54.974Z,45.40
2018-08-12T23:34:23.369Z,45.50
2018-08-12T23:36:52.404Z,45.80
2018-08-12T23:39:20.746Z,46.10
2018-08-12T23:41:49.098Z,46.20
2018-08-12T23:44:17.489Z,46.40
2018-08-12T23:46:45.884Z,46.60
2018-08-12T23:49:14.279Z,46.70
2018-08-12T23:51:42.612Z,46.80
2018-08-12T23:54:11.004Z,46.90
2018-08-12T23:56:39.369Z,47.00
2018-08-12T23:59:07.714Z,47.10
